sensor_id;sensor_type;location;lat;lon;timestamp;pressure;altitude;pressure_sealevel;temperature;humidity
50087;BME280;35967;50.718;7.050;2022-08-30T00:07:35;101047.44;;;21.72;47.46
50087;BME280;35967;50.718;7.050;2022-08-30T00:17:38;101055.38;;;21.56;47.95
50087;BME280;35967;50.718;7.050;2022-08-30T00:27:40;101075.69;;;21.38;48.30
50087;BME280;35967;50.718;7.050;2022-08-30T00:37:43;101078.59;;;21.05;49.03
50087;BME280;35967;50.718;7.050;2022-08-30T00:47:45;101095.00;;;20.92;49.69
50087;BME280;35967;50.718;7.050;2022-08-30T00:57:50;101087.81;;;20.96;49.21
50087;BME280;35967;50.718;7.050;2022-08-30T01:07:53;101099.41;;;20.45;50.66
50087;BME280;35967;50.718;7.050;2022-08-30T01:17:55;101103.47;;;20.35;50.87
50087;BME280;35967;50.718;7.050;2022-08-30T01:28:06;101092.25;;;20.79;49.82
50087;BME280;35967;50.718;7.050;2022-08-30T01:38:09;101095.31;;;20.25;51.54
50087;BME280;35967;50.718;7.050;2022-08-30T01:48:11;101097.09;;;19.93;51.96
50087;BME280;35967;50.718;7.050;2022-08-30T01:58:13;101097.59;;;19.99;51.96
50087;BME280;35967;50.718;7.050;2022-08-30T02:08:15;101102.41;;;19.58;53.31
50087;BME280;35967;50.718;7.050;2022-08-30T02:18:17;101096.91;;;19.46;53.32
50087;BME280;35967;50.718;7.050;2022-08-30T02:28:19;101100.47;;;19.28;54.02
50087;BME280;35967;50.718;7.050;2022-08-30T02:38:25;101099.78;;;19.24;53.66
50087;BME280;35967;50.718;7.050;2022-08-30T02:48:27;101070.31;;;19.55;52.42
50087;BME280;35967;50.718;7.050;2022-08-30T02:58:29;101076.03;;;19.46;52.79
50087;BME280;35967;50.718;7.050;2022-08-30T03:08:32;101056.47;;;19.37;53.72
50087;BME280;35967;50.718;7.050;2022-08-30T03:18:35;101065.91;;;19.06;54.63
50087;BME280;35967;50.718;7.050;2022-08-30T03:28:37;101093.66;;;18.72;55.31
50087;BME280;35967;50.718;7.050;2022-08-30T03:38:39;101085.16;;;18.69;54.71
50087;BME280;35967;50.718;7.050;2022-08-30T03:48:41;101076.41;;;19.05;53.79
50087;BME280;35967;50.718;7.050;2022-08-30T03:58:43;101067.53;;;19.09;53.90
50087;BME280;35967;50.718;7.050;2022-08-30T04:08:45;101077.16;;;18.89;55.12
50087;BME280;35967;50.718;7.050;2022-08-30T04:18:47;101076.53;;;18.49;56.30
50087;BME280;35967;50.718;7.050;2022-08-30T04:28:49;101076.88;;;18.24;56.73
50087;BME280;35967;50.718;7.050;2022-08-30T04:38:51;101091.94;;;18.17;57.01
50087;BME280;35967;50.718;7.050;2022-08-30T04:48:53;101083.91;;;18.22;57.08
50087;BME280;35967;50.718;7.050;2022-08-30T04:58:55;101097.03;;;18.20;57.28
50087;BME280;35967;50.718;7.050;2022-08-30T05:08:57;101103.22;;;18.18;57.49
50087;BME280;35967;50.718;7.050;2022-08-30T05:19:02;101109.50;;;18.50;56.87
50087;BME280;35967;50.718;7.050;2022-08-30T05:29:05;101114.81;;;18.49;57.14
50087;BME280;35967;50.718;7.050;2022-08-30T05:39:09;101134.75;;;18.50;57.60
50087;BME280;35967;50.718;7.050;2022-08-30T05:49:11;101126.50;;;18.40;57.51
50087;BME280;35967;50.718;7.050;2022-08-30T05:59:14;101125.66;;;19.11;59.70
50087;BME280;35967;50.718;7.050;2022-08-30T06:09:15;101119.81;;;19.41;56.77
50087;BME280;35967;50.718;7.050;2022-08-30T06:19:18;101116.91;;;19.12;55.89
50087;BME280;35967;50.718;7.050;2022-08-30T06:29:21;101109.47;;;19.55;54.68
50087;BME280;35967;50.718;7.050;2022-08-30T06:39:23;101114.03;;;20.01;52.96
50087;BME280;35967;50.718;7.050;2022-08-30T06:49:24;101113.72;;;20.70;51.62
50087;BME280;35967;50.718;7.050;2022-08-30T06:59:26;101118.56;;;20.92;51.99
50087;BME280;35967;50.718;7.050;2022-08-30T07:09:29;101126.53;;;21.05;51.18
50087;BME280;35967;50.718;7.050;2022-08-30T07:19:36;101129.13;;;20.91;51.19
50087;BME280;35967;50.718;7.050;2022-08-30T07:29:38;101130.16;;;21.77;49.85
50087;BME280;35967;50.718;7.050;2022-08-30T07:39:40;101148.47;;;21.33;50.50
50087;BME280;35967;50.718;7.050;2022-08-30T07:49:48;101136.06;;;22.22;48.17
50087;BME280;35967;50.718;7.050;2022-08-30T07:59:50;101129.84;;;22.37;49.06
50087;BME280;35967;50.718;7.050;2022-08-30T08:09:52;101132.34;;;23.07;47.21
50087;BME280;35967;50.718;7.050;2022-08-30T08:19:54;101129.19;;;23.14;46.65
50087;BME280;35967;50.718;7.050;2022-08-30T08:29:56;101130.75;;;22.91;45.58
50087;BME280;35967;50.718;7.050;2022-08-30T08:39:58;101126.75;;;22.98;44.50
50087;BME280;35967;50.718;7.050;2022-08-30T08:50:04;101119.50;;;23.02;45.21
50087;BME280;35967;50.718;7.050;2022-08-30T09:00:09;101114.28;;;23.15;45.03
50087;BME280;35967;50.718;7.050;2022-08-30T09:10:13;101122.69;;;23.59;43.44
50087;BME280;35967;50.718;7.050;2022-08-30T09:20:27;101102.22;;;23.88;43.34
50087;BME280;35967;50.718;7.050;2022-08-30T09:30:29;101093.25;;;24.52;42.78
50087;BME280;35967;50.718;7.050;2022-08-30T09:40:38;101092.84;;;24.70;41.20
50087;BME280;35967;50.718;7.050;2022-08-30T09:50:41;101088.00;;;24.64;41.85
50087;BME280;35967;50.718;7.050;2022-08-30T10:01:13;101078.56;;;25.19;40.27
50087;BME280;35967;50.718;7.050;2022-08-30T10:11:20;101065.38;;;25.65;38.88
50087;BME280;35967;50.718;7.050;2022-08-30T10:21:40;101056.16;;;25.59;37.03
50087;BME280;35967;50.718;7.050;2022-08-30T10:42:12;101044.84;;;25.80;36.06
50087;BME280;35967;50.718;7.050;2022-08-30T10:52:32;101040.63;;;25.89;36.73
50087;BME280;35967;50.718;7.050;2022-08-30T11:03:03;101038.66;;;25.70;37.30
50087;BME280;35967;50.718;7.050;2022-08-30T11:13:17;101028.09;;;25.70;36.71
50087;BME280;35967;50.718;7.050;2022-08-30T11:43:48;101011.78;;;27.94;34.09
50087;BME280;35967;50.718;7.050;2022-08-30T12:14:50;100991.00;;;28.39;31.33
50087;BME280;35967;50.718;7.050;2022-08-30T12:24:55;100986.22;;;28.52;30.75
50087;BME280;35967;50.718;7.050;2022-08-30T12:35:00;100974.09;;;28.59;30.66
50087;BME280;35967;50.718;7.050;2022-08-30T12:45:09;100961.63;;;28.02;31.24
50087;BME280;35967;50.718;7.050;2022-08-30T13:15:47;100934.94;;;28.91;31.11
50087;BME280;35967;50.718;7.050;2022-08-30T13:25:49;100927.63;;;29.03;30.72
50087;BME280;35967;50.718;7.050;2022-08-30T13:35:51;100916.72;;;29.06;30.65
50087;BME280;35967;50.718;7.050;2022-08-30T13:45:55;100909.16;;;29.11;31.08
50087;BME280;35967;50.718;7.050;2022-08-30T13:56:00;100905.00;;;29.26;30.84
50087;BME280;35967;50.718;7.050;2022-08-30T14:06:04;100892.41;;;29.38;30.67
50087;BME280;35967;50.718;7.050;2022-08-30T14:16:27;100883.75;;;29.36;30.70
50087;BME280;35967;50.718;7.050;2022-08-30T14:26:33;100879.53;;;28.98;31.11
50087;BME280;35967;50.718;7.050;2022-08-30T14:36:37;100876.50;;;29.10;30.85
50087;BME280;35967;50.718;7.050;2022-08-30T14:46:41;100873.59;;;28.86;31.04
50087;BME280;35967;50.718;7.050;2022-08-30T14:56:43;100849.56;;;29.15;30.68
50087;BME280;35967;50.718;7.050;2022-08-30T15:06:46;100855.69;;;29.16;30.50
50087;BME280;35967;50.718;7.050;2022-08-30T15:16:52;100852.94;;;28.89;30.47
50087;BME280;35967;50.718;7.050;2022-08-30T15:26:55;100829.00;;;28.81;30.75
50087;BME280;35967;50.718;7.050;2022-08-30T15:36:57;100816.31;;;28.57;31.55
50087;BME280;35967;50.718;7.050;2022-08-30T15:46:59;100805.22;;;28.71;31.24
50087;BME280;35967;50.718;7.050;2022-08-30T15:57:01;100801.16;;;28.77;31.13
50087;BME280;35967;50.718;7.050;2022-08-30T16:07:06;100796.31;;;28.72;30.93
50087;BME280;35967;50.718;7.050;2022-08-30T16:17:08;100796.13;;;28.74;31.16
50087;BME280;35967;50.718;7.050;2022-08-30T16:27:10;100788.41;;;28.62;31.15
50087;BME280;35967;50.718;7.050;2022-08-30T16:37:12;100789.88;;;28.47;31.36
50087;BME280;35967;50.718;7.050;2022-08-30T16:47:14;100787.44;;;28.36;31.22
50087;BME280;35967;50.718;7.050;2022-08-30T16:57:16;100776.03;;;28.25;32.53
50087;BME280;35967;50.718;7.050;2022-08-30T17:07:18;100786.44;;;28.09;33.52
50087;BME280;35967;50.718;7.050;2022-08-30T17:17:23;100796.78;;;27.92;34.14
50087;BME280;35967;50.718;7.050;2022-08-30T17:27:25;100808.22;;;27.73;34.84
50087;BME280;35967;50.718;7.050;2022-08-30T17:37:27;100822.19;;;27.65;35.43
50087;BME280;35967;50.718;7.050;2022-08-30T17:47:29;100841.94;;;27.51;36.26
50087;BME280;35967;50.718;7.050;2022-08-30T17:57:37;100843.19;;;27.28;37.84
50087;BME280;35967;50.718;7.050;2022-08-30T18:07:42;100855.28;;;27.20;38.23
50087;BME280;35967;50.718;7.050;2022-08-30T18:17:44;100872.38;;;27.06;38.82
50087;BME280;35967;50.718;7.050;2022-08-30T18:27:48;100874.44;;;26.83;39.54
50087;BME280;35967;50.718;7.050;2022-08-30T18:37:59;100885.25;;;26.80;39.22
50087;BME280;35967;50.718;7.050;2022-08-30T18:48:02;100901.81;;;26.51;40.11
50087;BME280;35967;50.718;7.050;2022-08-30T18:58:04;100910.63;;;26.40;40.00
50087;BME280;35967;50.718;7.050;2022-08-30T19:08:06;100919.78;;;26.36;39.52
50087;BME280;35967;50.718;7.050;2022-08-30T19:18:09;100919.66;;;25.95;40.59
50087;BME280;35967;50.718;7.050;2022-08-30T19:28:17;100931.47;;;26.01;40.22
50087;BME280;35967;50.718;7.050;2022-08-30T19:38:20;100926.38;;;25.88;40.12
50087;BME280;35967;50.718;7.050;2022-08-30T19:48:24;100928.56;;;25.83;40.70
50087;BME280;35967;50.718;7.050;2022-08-30T19:58:34;100936.53;;;25.93;40.72
50087;BME280;35967;50.718;7.050;2022-08-30T20:08:36;100942.25;;;25.77;40.29
50087;BME280;35967;50.718;7.050;2022-08-30T20:18:40;100943.16;;;25.66;40.74
50087;BME280;35967;50.718;7.050;2022-08-30T20:28:43;100949.91;;;25.59;40.76
50087;BME280;35967;50.718;7.050;2022-08-30T20:38:45;100958.47;;;25.40;40.93
50087;BME280;35967;50.718;7.050;2022-08-30T20:48:46;100955.47;;;25.65;40.83
50087;BME280;35967;50.718;7.050;2022-08-30T20:58:49;100955.78;;;25.51;41.74
50087;BME280;35967;50.718;7.050;2022-08-30T21:08:51;100954.72;;;25.42;41.21
50087;BME280;35967;50.718;7.050;2022-08-30T21:18:53;100962.88;;;25.16;41.86
50087;BME280;35967;50.718;7.050;2022-08-30T21:28:55;100979.91;;;25.01;43.14
50087;BME280;35967;50.718;7.050;2022-08-30T21:38:58;100980.38;;;25.06;43.19
50087;BME280;35967;50.718;7.050;2022-08-30T21:49:04;101003.59;;;24.89;43.76
50087;BME280;35967;50.718;7.050;2022-08-30T21:59:25;101008.63;;;24.93;43.39
50087;BME280;35967;50.718;7.050;2022-08-30T22:09:29;101022.41;;;24.49;44.45
50087;BME280;35967;50.718;7.050;2022-08-30T22:19:31;101019.47;;;24.65;45.63
50087;BME280;35967;50.718;7.050;2022-08-30T22:29:34;101014.91;;;24.56;45.90
50087;BME280;35967;50.718;7.050;2022-08-30T22:39:36;101011.31;;;24.57;45.42
50087;BME280;35967;50.718;7.050;2022-08-30T22:49:38;101013.69;;;24.60;44.99
50087;BME280;35967;50.718;7.050;2022-08-30T22:59:40;101016.19;;;24.39;46.46
50087;BME280;35967;50.718;7.050;2022-08-30T23:09:42;101021.53;;;24.37;47.66
50087;BME280;35967;50.718;7.050;2022-08-30T23:19:45;101024.63;;;24.31;48.43
50087;BME280;35967;50.718;7.050;2022-08-30T23:29:46;101015.78;;;23.97;49.57
50087;BME280;35967;50.718;7.050;2022-08-30T23:40:08;101031.28;;;23.75;54.12
50087;BME280;35967;50.718;7.050;2022-08-30T23:50:29;101035.19;;;23.33;56.10
